createdAt,value
2023-01-09T00:00:57.686Z,3.30
2023-01-09T00:03:32.835Z,3.20
2023-01-09T00:06:10.187Z,3.20
2023-01-09T00:08:48.363Z,3.20
2023-01-09T00:11:23.093Z,3.20
2023-01-09T00:14:00.467Z,3.20
2023-01-09T00:16:38.209Z,3.20
2023-01-09T00:19:16.050Z,3.20
2023-01-09T00:21:54.976Z,3.20
2023-01-09T00:24:30.958Z,3.20
2023-01-09T00:27:06.090Z,3.20
2023-01-09T00:29:42.049Z,3.20
2023-01-09T00:32:20.804Z,3.20
2023-01-09T00:34:55.587Z,3.20
2023-01-09T00:37:30.877Z,3.20
2023-01-09T00:40:06.097Z,3.20
2023-01-09T00:42:41.785Z,3.20
2023-01-09T00:45:21.505Z,3.10
2023-01-09T00:48:00.462Z,3.10
2023-01-09T00:50:36.068Z,3.10
2023-01-09T00:53:20.103Z,3.10
2023-01-09T00:55:56.580Z,3.10
2023-01-09T00:58:30.868Z,3.10
2023-01-09T01:01:05.022Z,3.10
2023-01-09T01:03:44.242Z,3.00
2023-01-09T01:06:31.943Z,3.00
2023-01-09T01:09:07.272Z,2.90
2023-01-09T01:11:42.943Z,2.90
2023-01-09T01:14:17.868Z,2.90
2023-01-09T01:16:52.304Z,2.90
2023-01-09T01:19:30.599Z,2.90
2023-01-09T01:22:05.630Z,2.80
2023-01-09T01:24:41.004Z,2.80
2023-01-09T01:27:19.341Z,2.80
2023-01-09T01:29:54.991Z,2.80
2023-01-09T01:32:30.444Z,2.80
2023-01-09T01:35:09.320Z,2.70
2023-01-09T01:37:44.683Z,2.70
2023-01-09T01:40:19.134Z,2.70
2023-01-09T01:42:55.218Z,2.70
2023-01-09T01:45:31.113Z,2.80
2023-01-09T01:48:07.485Z,2.70
2023-01-09T01:50:47.886Z,2.80
2023-01-09T01:53:23.062Z,2.70
2023-01-09T01:56:02.542Z,2.70
2023-01-09T01:58:40.902Z,2.80
2023-01-09T02:01:19.792Z,2.80
2023-01-09T02:03:56.732Z,2.80
2023-01-09T02:06:35.343Z,2.80
2023-01-09T02:09:11.572Z,2.80
2023-01-09T02:11:47.528Z,2.80
2023-01-09T02:14:23.244Z,2.70
2023-01-09T02:17:00.965Z,2.70
2023-01-09T02:20:09.130Z,2.60
2023-01-09T02:22:52.799Z,2.60
2023-01-09T02:25:46.117Z,2.60
2023-01-09T02:28:17.043Z,2.60
2023-01-09T02:30:55.555Z,2.60
2023-01-09T02:33:47.607Z,2.60
2023-01-09T02:36:21.090Z,2.50
2023-01-09T02:39:02.083Z,2.50
2023-01-09T02:41:42.866Z,2.50
2023-01-09T02:44:20.673Z,2.50
2023-01-09T02:47:08.512Z,2.50
2023-01-09T02:49:42.888Z,2.50
2023-01-09T02:52:25.393Z,2.50
2023-01-09T02:55:04.213Z,2.50
2023-01-09T02:57:47.537Z,2.50
2023-01-09T03:00:28.044Z,2.50
2023-01-09T03:03:10.480Z,2.50
2023-01-09T03:05:46.472Z,2.40
2023-01-09T03:08:23.437Z,2.40
2023-01-09T03:11:01.379Z,2.40
2023-01-09T03:13:39.252Z,2.30
2023-01-09T03:16:14.840Z,2.30
2023-01-09T03:18:52.688Z,2.30
2023-01-09T03:21:27.425Z,2.30
2023-01-09T03:24:03.128Z,2.30
2023-01-09T03:26:37.967Z,2.30
2023-01-09T03:29:13.874Z,2.40
2023-01-09T03:31:48.927Z,2.30
2023-01-09T03:34:27.134Z,2.30
2023-01-09T03:37:02.034Z,2.20
2023-01-09T03:39:38.029Z,2.30
2023-01-09T03:42:13.166Z,2.20
2023-01-09T03:44:48.230Z,2.20
2023-01-09T03:47:23.126Z,2.20
2023-01-09T03:50:01.520Z,2.10
2023-01-09T03:52:37.026Z,2.20
2023-01-09T03:55:15.621Z,2.10
2023-01-09T03:57:52.870Z,2.10
2023-01-09T04:00:28.405Z,2.10
2023-01-09T04:03:03.334Z,2.10
2023-01-09T04:05:41.434Z,2.20
2023-01-09T04:08:19.491Z,2.20
2023-01-09T04:10:55.127Z,2.20
2023-01-09T04:13:31.162Z,2.20
2023-01-09T04:16:06.253Z,2.30
2023-01-09T04:18:41.819Z,2.20
2023-01-09T04:21:19.933Z,2.20
2023-01-09T04:23:54.473Z,2.20
2023-01-09T04:26:30.113Z,2.20
2023-01-09T04:29:05.979Z,2.10
2023-01-09T04:31:42.661Z,2.10
2023-01-09T04:34:17.206Z,2.10
2023-01-09T04:36:56.369Z,2.10
2023-01-09T04:39:31.927Z,2.10
2023-01-09T04:42:06.108Z,2.10
2023-01-09T04:44:42.320Z,2.10
2023-01-09T04:47:17.947Z,2.10
2023-01-09T04:49:54.222Z,2.20
2023-01-09T04:52:33.346Z,2.20
2023-01-09T04:55:09.019Z,2.10
2023-01-09T04:57:44.095Z,2.10
2023-01-09T05:00:21.205Z,2.10
2023-01-09T05:02:57.310Z,2.20
2023-01-09T05:05:31.481Z,2.10
2023-01-09T05:08:09.800Z,2.20
2023-01-09T05:10:46.389Z,2.20
2023-01-09T05:13:25.199Z,2.20
2023-01-09T05:16:00.616Z,2.20
2023-01-09T05:18:35.106Z,2.20
2023-01-09T05:21:11.142Z,2.20
2023-01-09T05:23:49.280Z,2.20
2023-01-09T05:26:27.191Z,2.20
2023-01-09T05:29:02.729Z,2.20
2023-01-09T05:31:37.515Z,2.20
2023-01-09T05:34:13.006Z,2.20
2023-01-09T05:36:48.833Z,2.30
2023-01-09T05:39:27.715Z,2.20
2023-01-09T05:42:03.073Z,2.30
2023-01-09T05:44:40.187Z,2.20
2023-01-09T05:47:16.412Z,2.20
2023-01-09T05:49:50.969Z,2.20
2023-01-09T05:52:25.255Z,2.20
2023-01-09T05:55:20.702Z,2.20
2023-01-09T05:57:56.273Z,2.20
2023-01-09T06:00:31.592Z,2.20
2023-01-09T06:03:07.249Z,2.20
2023-01-09T06:05:43.316Z,2.20
2023-01-09T06:08:20.270Z,2.30
2023-01-09T06:10:59.148Z,2.30
2023-01-09T06:13:35.158Z,2.30
2023-01-09T06:16:14.569Z,2.30
2023-01-09T06:18:49.530Z,2.40
2023-01-09T06:21:24.879Z,2.30
2023-01-09T06:23:58.833Z,2.40
2023-01-09T06:26:35.961Z,2.40
2023-01-09T06:29:11.801Z,2.50
2023-01-09T06:31:45.696Z,2.60
2023-01-09T06:34:21.022Z,2.50
2023-01-09T06:36:55.978Z,2.50
2023-01-09T06:39:31.042Z,2.50
2023-01-09T06:42:09.443Z,2.50
2023-01-09T06:44:44.045Z,2.60
2023-01-09T06:47:19.030Z,2.50
2023-01-09T06:49:54.234Z,2.60
2023-01-09T06:52:29.672Z,2.60
2023-01-09T06:55:04.520Z,2.60
2023-01-09T06:57:41.274Z,2.60
2023-01-09T07:00:16.728Z,2.60
2023-01-09T07:02:51.116Z,2.60
2023-01-09T07:05:26.200Z,2.60
2023-01-09T07:08:12.731Z,2.60
2023-01-09T07:10:50.078Z,2.70
2023-01-09T07:13:27.655Z,2.70
2023-01-09T07:16:03.593Z,2.60
2023-01-09T07:18:39.819Z,2.60
2023-01-09T07:21:13.841Z,2.60
2023-01-09T07:23:48.622Z,2.60
2023-01-09T07:26:26.150Z,2.60
2023-01-09T07:29:04.462Z,2.70
2023-01-09T07:31:40.914Z,2.70
2023-01-09T07:34:15.644Z,2.70
2023-01-09T07:36:51.455Z,2.70
2023-01-09T07:39:27.149Z,2.70
2023-01-09T07:42:03.390Z,2.80
2023-01-09T07:44:41.218Z,2.80
2023-01-09T07:47:14.215Z,2.80
2023-01-09T07:49:49.963Z,2.80
2023-01-09T07:52:28.196Z,2.80
2023-01-09T07:55:04.678Z,2.80
2023-01-09T07:57:40.968Z,2.90
2023-01-09T08:00:21.445Z,2.90
2023-01-09T08:02:56.240Z,2.90
2023-01-09T08:05:32.312Z,2.90
2023-01-09T08:08:08.641Z,2.90
2023-01-09T08:10:45.025Z,2.90
2023-01-09T08:13:23.918Z,3.00
2023-01-09T08:16:01.668Z,3.00
2023-01-09T08:18:37.063Z,3.00
2023-01-09T08:21:12.691Z,3.00
2023-01-09T08:23:49.121Z,3.10
2023-01-09T08:26:22.301Z,3.00
2023-01-09T08:28:58.480Z,3.10
2023-01-09T08:31:35.592Z,3.10
2023-01-09T08:34:10.594Z,3.20
2023-01-09T08:36:46.460Z,3.20
2023-01-09T08:39:22.411Z,3.20
2023-01-09T08:42:09.898Z,3.20
2023-01-09T08:44:56.886Z,3.30
2023-01-09T08:47:35.461Z,3.30
2023-01-09T08:50:10.829Z,3.30
2023-01-09T08:52:45.948Z,3.40
2023-01-09T08:55:21.979Z,3.40
2023-01-09T08:57:57.833Z,3.40
2023-01-09T09:00:32.628Z,3.50
2023-01-09T09:03:10.606Z,3.50
2023-01-09T09:05:46.943Z,3.50
2023-01-09T09:08:23.644Z,3.60
2023-01-09T09:11:01.575Z,3.60
2023-01-09T09:13:37.598Z,3.70
2023-01-09T09:16:12.523Z,3.60
2023-01-09T09:18:52.587Z,3.70
2023-01-09T09:21:28.492Z,3.70
2023-01-09T09:24:03.762Z,3.70
2023-01-09T09:26:39.453Z,3.80
2023-01-09T09:29:15.688Z,3.80
2023-01-09T09:31:52.278Z,3.90
2023-01-09T09:34:30.919Z,3.90
2023-01-09T09:37:05.981Z,4.00
2023-01-09T09:39:41.268Z,4.10
2023-01-09T09:42:49.461Z,4.10
2023-01-09T09:45:30.206Z,4.10
2023-01-09T09:48:13.160Z,4.20
2023-01-09T09:51:27.459Z,4.20
2023-01-09T09:54:07.655Z,4.30
2023-01-09T09:56:45.324Z,4.40
2023-01-09T09:59:22.429Z,4.40
2023-01-09T10:02:00.221Z,4.40
2023-01-09T10:04:54.954Z,4.50
2023-01-09T10:07:26.168Z,4.60
2023-01-09T10:10:06.024Z,4.60
2023-01-09T10:12:43.068Z,4.60
2023-01-09T10:15:17.471Z,4.70
2023-01-09T10:18:05.565Z,4.80
2023-01-09T10:20:58.950Z,4.80
2023-01-09T10:24:06.950Z,4.90
2023-01-09T10:26:46.327Z,5.00
2023-01-09T10:29:32.820Z,5.10
2023-01-09T10:32:07.403Z,5.10
2023-01-09T10:34:49.117Z,5.20
2023-01-09T10:37:27.299Z,5.20
2023-01-09T10:40:05.796Z,5.30
2023-01-09T10:42:47.763Z,5.40
2023-01-09T10:45:26.566Z,5.40
2023-01-09T10:48:03.804Z,5.60
2023-01-09T10:50:39.258Z,5.70
2023-01-09T10:53:23.472Z,5.70
2023-01-09T10:56:00.078Z,5.80
2023-01-09T10:58:39.213Z,5.90
2023-01-09T11:01:15.362Z,5.90
2023-01-09T11:03:50.982Z,6.00
2023-01-09T11:06:30.283Z,6.10
2023-01-09T11:09:06.554Z,6.10
2023-01-09T11:11:50.416Z,6.20
2023-01-09T11:14:31.760Z,6.20
2023-01-09T11:17:07.371Z,6.30
2023-01-09T11:19:42.905Z,6.30
2023-01-09T11:22:20.158Z,6.30
2023-01-09T11:25:03.334Z,6.40
2023-01-09T11:27:38.784Z,6.40
2023-01-09T11:30:27.354Z,6.50
2023-01-09T11:33:05.332Z,6.50
2023-01-09T11:35:40.699Z,6.50
2023-01-09T11:38:17.870Z,6.50
2023-01-09T11:40:53.233Z,6.60
2023-01-09T11:43:37.921Z,6.60
2023-01-09T11:46:32.147Z,6.60
2023-01-09T11:49:08.671Z,6.60
2023-01-09T11:51:43.607Z,6.60
2023-01-09T11:54:24.362Z,6.70
2023-01-09T11:56:59.224Z,6.70
2023-01-09T11:59:34.486Z,6.70
2023-01-09T12:02:40.344Z,6.70
2023-01-09T12:05:23.755Z,6.80
2023-01-09T12:08:19.824Z,6.80
2023-01-09T12:11:16.124Z,6.80
2023-01-09T12:14:24.408Z,6.90
2023-01-09T12:17:25.081Z,6.90
2023-01-09T12:20:19.367Z,6.90
2023-01-09T12:23:00.252Z,6.90
2023-01-09T12:25:40.964Z,6.90
2023-01-09T12:28:34.544Z,7.00
2023-01-09T12:31:18.216Z,7.00
2023-01-09T12:33:58.437Z,7.00
2023-01-09T12:36:40.682Z,7.00
2023-01-09T12:39:20.965Z,7.00
2023-01-09T12:42:08.222Z,7.00
2023-01-09T12:44:52.651Z,7.10
2023-01-09T12:47:47.113Z,7.10
2023-01-09T12:50:39.896Z,7.10
2023-01-09T12:53:21.390Z,7.10
2023-01-09T12:55:59.949Z,7.10
2023-01-09T12:58:37.725Z,7.20
2023-01-09T13:01:15.173Z,7.20
2023-01-09T13:03:54.396Z,7.20
2023-01-09T13:06:30.337Z,7.20
2023-01-09T13:09:15.745Z,7.30
2023-01-09T13:11:52.757Z,7.20
2023-01-09T13:14:31.738Z,7.20
2023-01-09T13:17:07.241Z,7.30
2023-01-09T13:19:43.043Z,7.30
2023-01-09T13:22:19.444Z,7.30
2023-01-09T13:25:33.088Z,7.30
2023-01-09T13:28:16.241Z,7.30
2023-01-09T13:30:50.452Z,7.30
2023-01-09T13:33:25.747Z,7.30
2023-01-09T13:36:03.210Z,7.40
2023-01-09T13:38:38.702Z,7.40
2023-01-09T13:41:28.806Z,7.40
2023-01-09T13:44:09.515Z,7.40
2023-01-09T13:46:46.373Z,7.50
2023-01-09T13:49:37.302Z,7.50
2023-01-09T13:52:33.022Z,7.50
2023-01-09T13:55:26.864Z,7.50
2023-01-09T13:58:18.891Z,7.50
2023-01-09T14:00:53.759Z,7.60
2023-01-09T14:03:33.808Z,7.60
2023-01-09T14:06:22.329Z,7.60
2023-01-09T14:09:15.041Z,7.60
2023-01-09T14:11:54.011Z,7.60
2023-01-09T14:14:31.698Z,7.60
2023-01-09T14:17:07.153Z,7.60
2023-01-09T14:19:45.595Z,7.60
2023-01-09T14:22:29.033Z,7.60
2023-01-09T14:25:11.685Z,7.60
2023-01-09T14:28:11.844Z,7.60
2023-01-09T14:31:11.119Z,7.60
2023-01-09T14:33:46.116Z,7.60
2023-01-09T14:36:29.604Z,7.60
2023-01-09T14:39:04.369Z,7.60
2023-01-09T14:41:53.104Z,7.60
2023-01-09T14:44:32.093Z,7.60
2023-01-09T14:47:10.505Z,7.60
2023-01-09T14:49:47.083Z,7.50
2023-01-09T14:52:27.275Z,7.60
2023-01-09T14:55:04.831Z,7.60
2023-01-09T14:57:41.433Z,7.50
2023-01-09T15:00:20.888Z,7.50
2023-01-09T15:02:55.526Z,7.50
2023-01-09T15:05:33.645Z,7.50
2023-01-09T15:08:13.637Z,7.50
2023-01-09T15:10:48.912Z,7.50
2023-01-09T15:13:27.065Z,7.50
2023-01-09T15:16:03.325Z,7.50
2023-01-09T15:18:42.596Z,7.60
2023-01-09T15:21:20.681Z,7.50
2023-01-09T15:24:14.903Z,7.50
2023-01-09T15:26:55.100Z,7.50
2023-01-09T15:29:35.546Z,7.50
2023-01-09T15:32:10.974Z,7.50
2023-01-09T15:34:47.032Z,7.50
2023-01-09T15:37:24.061Z,7.50
2023-01-09T15:40:00.881Z,7.50
2023-01-09T15:42:47.786Z,7.50
2023-01-09T15:45:27.104Z,7.50
2023-01-09T15:48:24.365Z,7.50
2023-01-09T15:51:00.326Z,7.40
2023-01-09T15:53:34.751Z,7.40
2023-01-09T15:56:19.831Z,7.40
2023-01-09T15:58:54.696Z,7.40
2023-01-09T16:01:33.913Z,7.40
2023-01-09T16:04:11.691Z,7.40
2023-01-09T16:06:48.144Z,7.40
2023-01-09T16:09:31.389Z,7.40
2023-01-09T16:12:09.628Z,7.40
2023-01-09T16:14:46.795Z,7.40
2023-01-09T16:17:24.048Z,7.30
2023-01-09T16:19:59.510Z,7.30
2023-01-09T16:22:36.233Z,7.30
2023-01-09T16:25:27.802Z,7.30
2023-01-09T16:28:23.333Z,7.30
2023-01-09T16:30:59.351Z,7.30
2023-01-09T16:33:35.080Z,7.30
2023-01-09T16:36:14.167Z,7.20
2023-01-09T16:38:51.294Z,7.30
2023-01-09T16:41:40.354Z,7.20
2023-01-09T16:44:19.602Z,7.20
2023-01-09T16:46:54.853Z,7.20
2023-01-09T16:49:29.723Z,7.10
2023-01-09T16:52:05.596Z,7.10
2023-01-09T16:54:40.238Z,7.10
2023-01-09T16:57:18.549Z,7.10
2023-01-09T16:59:56.785Z,7.10
2023-01-09T17:02:31.837Z,7.00
2023-01-09T17:05:07.325Z,7.00
2023-01-09T17:07:43.916Z,7.00
2023-01-09T17:10:22.333Z,7.00
2023-01-09T17:12:57.535Z,7.00
2023-01-09T17:15:34.793Z,7.00
2023-01-09T17:18:11.379Z,7.00
2023-01-09T17:20:46.658Z,7.00
2023-01-09T17:23:22.855Z,7.00
2023-01-09T17:26:11.126Z,7.00
2023-01-09T17:28:45.535Z,7.00
2023-01-09T17:31:23.692Z,7.00
2023-01-09T17:33:59.011Z,7.00
2023-01-09T17:36:34.923Z,7.00
2023-01-09T17:39:09.348Z,7.00
2023-01-09T17:41:44.949Z,7.00
2023-01-09T17:44:20.046Z,7.00
2023-01-09T17:46:58.386Z,7.00
2023-01-09T17:49:34.072Z,7.10
2023-01-09T17:52:12.878Z,7.10
2023-01-09T17:54:48.441Z,7.10
2023-01-09T17:57:22.917Z,7.10
2023-01-09T17:59:56.913Z,7.10
2023-01-09T18:02:34.736Z,7.10
2023-01-09T18:05:10.034Z,7.10
2023-01-09T18:07:47.315Z,7.10
2023-01-09T18:10:24.498Z,7.00
2023-01-09T18:12:59.416Z,7.00
2023-01-09T18:15:34.651Z,7.00
2023-01-09T18:18:11.744Z,7.00
2023-01-09T18:20:46.756Z,7.00
2023-01-09T18:23:20.932Z,7.00
2023-01-09T18:25:56.109Z,7.00
2023-01-09T18:28:31.326Z,7.00
2023-01-09T18:31:06.048Z,6.90
2023-01-09T18:33:44.028Z,6.90
2023-01-09T18:36:19.238Z,6.80
2023-01-09T18:38:55.154Z,6.80
2023-01-09T18:41:30.515Z,6.80
2023-01-09T18:44:06.281Z,6.90
2023-01-09T18:46:43.755Z,6.90
2023-01-09T18:49:22.177Z,6.80
2023-01-09T18:51:58.052Z,6.80
2023-01-09T18:54:36.147Z,6.80
2023-01-09T18:57:10.778Z,6.80
2023-01-09T18:59:43.874Z,6.80
2023-01-09T19:02:21.865Z,6.70
2023-01-09T19:04:57.396Z,6.60
2023-01-09T19:07:32.950Z,6.60
2023-01-09T19:10:09.367Z,6.50
2023-01-09T19:12:44.940Z,6.40
2023-01-09T19:15:20.644Z,6.40
2023-01-09T19:17:55.987Z,6.30
2023-01-09T19:20:36.518Z,6.20
2023-01-09T19:23:12.112Z,6.20
2023-01-09T19:25:48.646Z,6.10
2023-01-09T19:28:24.070Z,6.10
2023-01-09T19:30:59.371Z,6.00
2023-01-09T19:33:35.932Z,6.00
2023-01-09T19:36:14.775Z,5.90
2023-01-09T19:38:50.473Z,5.90
2023-01-09T19:41:26.037Z,5.80
2023-01-09T19:44:01.959Z,5.70
2023-01-09T19:46:37.763Z,5.70
2023-01-09T19:49:14.078Z,5.60
2023-01-09T19:51:55.303Z,5.60
2023-01-09T19:54:30.583Z,5.50
2023-01-09T19:57:06.549Z,5.50
2023-01-09T19:59:43.750Z,5.40
2023-01-09T20:04:56.227Z,5.40
2023-01-09T20:07:35.672Z,5.40
2023-01-09T20:10:14.603Z,5.40
2023-01-09T20:12:51.036Z,5.40
2023-01-09T20:15:27.350Z,5.30
2023-01-09T20:18:02.495Z,5.30
2023-01-09T20:20:38.027Z,5.30
2023-01-09T20:23:20.342Z,5.30
2023-01-09T20:25:55.603Z,5.30
2023-01-09T20:28:33.811Z,5.30
2023-01-09T20:31:03.364Z,5.30
2023-01-09T20:33:40.861Z,5.30
2023-01-09T20:36:16.160Z,5.30
2023-01-09T20:38:56.691Z,5.30
2023-01-09T20:41:31.851Z,5.40
2023-01-09T20:44:08.033Z,5.40
2023-01-09T20:46:47.537Z,5.40
2023-01-09T20:49:24.545Z,5.30
2023-01-09T20:52:01.882Z,5.40
2023-01-09T20:54:42.166Z,5.30
2023-01-09T20:57:20.989Z,5.40
2023-01-09T20:59:58.675Z,5.40
2023-01-09T21:02:34.908Z,5.40
2023-01-09T21:05:12.084Z,5.40
2023-01-09T21:07:49.679Z,5.30
2023-01-09T21:10:28.603Z,5.40
2023-01-09T21:13:05.913Z,5.30
2023-01-09T21:15:44.408Z,5.30
2023-01-09T21:18:20.945Z,5.40
2023-01-09T21:20:57.763Z,5.40
2023-01-09T21:23:34.016Z,5.40
2023-01-09T21:26:17.451Z,5.40
2023-01-09T21:28:52.325Z,5.40
2023-01-09T21:31:32.264Z,5.50
2023-01-09T21:34:09.722Z,5.50
2023-01-09T21:36:48.054Z,5.50
2023-01-09T21:39:25.686Z,5.60
2023-01-09T21:42:15.662Z,5.60
2023-01-09T21:45:05.325Z,5.60
2023-01-09T21:47:42.793Z,5.70
2023-01-09T21:50:19.563Z,5.70
2023-01-09T21:52:55.343Z,5.70
2023-01-09T21:55:32.273Z,5.70
2023-01-09T21:58:14.670Z,5.70
2023-01-09T22:00:51.647Z,5.70
2023-01-09T22:03:27.437Z,5.70
2023-01-09T22:06:06.219Z,5.70
2023-01-09T22:08:42.557Z,5.60
2023-01-09T22:11:18.509Z,5.70
2023-01-09T22:13:57.676Z,5.70
2023-01-09T22:16:32.559Z,5.70
2023-01-09T22:19:07.763Z,5.70
2023-01-09T22:21:42.251Z,5.70
2023-01-09T22:24:17.780Z,5.70
2023-01-09T22:26:52.504Z,5.70
2023-01-09T22:29:29.552Z,5.70
2023-01-09T22:32:04.405Z,5.70
2023-01-09T22:34:39.312Z,5.60
2023-01-09T22:37:14.578Z,5.60
2023-01-09T22:39:49.466Z,5.60
2023-01-09T22:42:24.482Z,5.60
2023-01-09T22:45:01.809Z,5.60
2023-01-09T22:47:37.457Z,5.60
2023-01-09T22:50:13.392Z,5.60
2023-01-09T22:52:48.864Z,5.70
2023-01-09T22:55:24.002Z,5.70
2023-01-09T22:57:57.855Z,5.70
2023-01-09T23:00:35.272Z,5.70
2023-01-09T23:03:10.424Z,5.70
2023-01-09T23:05:45.806Z,5.70
2023-01-09T23:08:20.586Z,5.70
2023-01-09T23:10:55.489Z,5.80
2023-01-09T23:13:30.280Z,5.80
2023-01-09T23:16:08.586Z,5.80
2023-01-09T23:18:42.959Z,5.80
2023-01-09T23:21:19.800Z,5.80
2023-01-09T23:23:54.389Z,5.80
2023-01-09T23:26:29.299Z,5.80
2023-01-09T23:29:07.083Z,5.80
2023-01-09T23:31:45.809Z,5.80
2023-01-09T23:34:23.800Z,5.80
2023-01-09T23:36:59.732Z,5.80
2023-01-09T23:39:33.951Z,5.80
2023-01-09T23:42:20.564Z,5.80
2023-01-09T23:44:54.087Z,5.80
2023-01-09T23:47:30.699Z,5.80
2023-01-09T23:50:07.175Z,5.80
2023-01-09T23:52:42.655Z,5.80
2023-01-09T23:55:17.971Z,5.80
2023-01-09T23:57:54.606Z,5.80
